sensor_id;sensor_type;location;lat;lon;timestamp;P1;durP1;ratioP1;P2;durP2;ratioP2
51174;SDS011;37240;50.104;20.010;2023-12-20T00:03:04;25.77;;;9.65;;
51174;SDS011;37240;50.104;20.010;2023-12-20T00:08:05;28.65;;;10.73;;
51174;SDS011;37240;50.104;20.010;2023-12-20T00:13:06;27.60;;;10.95;;
51174;SDS011;37240;50.104;20.010;2023-12-20T00:18:06;34.28;;;11.40;;
51174;SDS011;37240;50.104;20.010;2023-12-20T00:23:07;31.30;;;11.63;;
51174;SDS011;37240;50.104;20.010;2023-12-20T00:28:07;33.03;;;10.82;;
51174;SDS011;37240;50.104;20.010;2023-12-20T00:33:08;31.27;;;10.88;;
51174;SDS011;37240;50.104;20.010;2023-12-20T00:38:08;32.55;;;10.52;;
51174;SDS011;37240;50.104;20.010;2023-12-20T00:43:09;25.13;;;9.20;;
51174;SDS011;37240;50.104;20.010;2023-12-20T00:48:10;24.77;;;10.00;;
51174;SDS011;37240;50.104;20.010;2023-12-20T00:53:10;27.55;;;8.90;;
51174;SDS011;37240;50.104;20.010;2023-12-20T00:58:11;24.88;;;8.55;;
51174;SDS011;37240;50.104;20.010;2023-12-20T01:03:11;22.70;;;8.95;;
51174;SDS011;37240;50.104;20.010;2023-12-20T01:08:12;25.60;;;7.90;;
51174;SDS011;37240;50.104;20.010;2023-12-20T01:13:15;17.00;;;7.10;;
51174;SDS011;37240;50.104;20.010;2023-12-20T01:18:16;20.55;;;7.18;;
51174;SDS011;37240;50.104;20.010;2023-12-20T01:23:16;20.38;;;7.65;;
51174;SDS011;37240;50.104;20.010;2023-12-20T01:28:17;14.00;;;6.18;;
51174;SDS011;37240;50.104;20.010;2023-12-20T01:33:17;13.63;;;5.78;;
51174;SDS011;37240;50.104;20.010;2023-12-20T01:38:18;15.85;;;6.65;;
51174;SDS011;37240;50.104;20.010;2023-12-20T01:43:18;15.32;;;6.00;;
51174;SDS011;37240;50.104;20.010;2023-12-20T01:48:19;17.17;;;6.47;;
51174;SDS011;37240;50.104;20.010;2023-12-20T01:53:21;17.23;;;6.75;;
51174;SDS011;37240;50.104;20.010;2023-12-20T01:58:23;16.63;;;5.72;;
51174;SDS011;37240;50.104;20.010;2023-12-20T02:03:25;15.30;;;6.22;;
51174;SDS011;37240;50.104;20.010;2023-12-20T02:08:26;12.88;;;5.93;;
51174;SDS011;37240;50.104;20.010;2023-12-20T02:13:26;11.23;;;5.18;;
51174;SDS011;37240;50.104;20.010;2023-12-20T02:18:27;10.63;;;4.75;;
51174;SDS011;37240;50.104;20.010;2023-12-20T02:23:28;12.63;;;4.97;;
51174;SDS011;37240;50.104;20.010;2023-12-20T02:28:28;10.43;;;4.60;;
51174;SDS011;37240;50.104;20.010;2023-12-20T02:33:30;7.97;;;4.88;;
51174;SDS011;37240;50.104;20.010;2023-12-20T02:38:31;14.35;;;4.88;;
51174;SDS011;37240;50.104;20.010;2023-12-20T02:43:31;9.70;;;4.07;;
51174;SDS011;37240;50.104;20.010;2023-12-20T02:48:32;12.75;;;5.03;;
51174;SDS011;37240;50.104;20.010;2023-12-20T02:53:32;14.73;;;5.20;;
51174;SDS011;37240;50.104;20.010;2023-12-20T02:58:33;8.45;;;4.90;;
51174;SDS011;37240;50.104;20.010;2023-12-20T03:03:33;10.57;;;5.05;;
51174;SDS011;37240;50.104;20.010;2023-12-20T03:08:33;76.05;;;30.85;;
51174;SDS011;37240;50.104;20.010;2023-12-20T03:13:34;36.80;;;16.70;;
51174;SDS011;37240;50.104;20.010;2023-12-20T03:18:35;19.38;;;8.57;;
51174;SDS011;37240;50.104;20.010;2023-12-20T03:23:35;13.57;;;6.22;;
51174;SDS011;37240;50.104;20.010;2023-12-20T03:28:36;8.85;;;4.85;;
51174;SDS011;37240;50.104;20.010;2023-12-20T03:33:36;7.32;;;4.15;;
51174;SDS011;37240;50.104;20.010;2023-12-20T03:38:37;4.68;;;3.30;;
51174;SDS011;37240;50.104;20.010;2023-12-20T03:43:37;6.57;;;3.75;;
51174;SDS011;37240;50.104;20.010;2023-12-20T03:48:38;7.05;;;3.50;;
51174;SDS011;37240;50.104;20.010;2023-12-20T03:53:38;8.32;;;4.20;;
51174;SDS011;37240;50.104;20.010;2023-12-20T03:58:39;7.60;;;3.80;;
51174;SDS011;37240;50.104;20.010;2023-12-20T04:03:39;10.68;;;4.47;;
51174;SDS011;37240;50.104;20.010;2023-12-20T04:08:40;8.07;;;4.20;;
51174;SDS011;37240;50.104;20.010;2023-12-20T04:13:40;9.65;;;4.70;;
51174;SDS011;37240;50.104;20.010;2023-12-20T04:18:41;8.95;;;4.15;;
51174;SDS011;37240;50.104;20.010;2023-12-20T04:23:42;11.50;;;4.63;;
51174;SDS011;37240;50.104;20.010;2023-12-20T04:28:42;6.78;;;3.88;;
51174;SDS011;37240;50.104;20.010;2023-12-20T04:33:43;9.80;;;4.30;;
51174;SDS011;37240;50.104;20.010;2023-12-20T04:38:43;8.25;;;4.30;;
51174;SDS011;37240;50.104;20.010;2023-12-20T04:43:44;5.90;;;3.95;;
51174;SDS011;37240;50.104;20.010;2023-12-20T04:48:44;8.43;;;3.97;;
51174;SDS011;37240;50.104;20.010;2023-12-20T04:53:45;6.22;;;3.92;;
51174;SDS011;37240;50.104;20.010;2023-12-20T04:58:45;8.57;;;3.95;;
51174;SDS011;37240;50.104;20.010;2023-12-20T05:03:46;3.38;;;3.08;;
51174;SDS011;37240;50.104;20.010;2023-12-20T05:08:46;5.53;;;3.72;;
51174;SDS011;37240;50.104;20.010;2023-12-20T05:13:47;10.60;;;3.42;;
51174;SDS011;37240;50.104;20.010;2023-12-20T05:18:48;4.85;;;3.15;;
51174;SDS011;37240;50.104;20.010;2023-12-20T05:23:48;5.90;;;3.05;;
51174;SDS011;37240;50.104;20.010;2023-12-20T05:28:49;3.75;;;2.50;;
51174;SDS011;37240;50.104;20.010;2023-12-20T05:33:50;6.32;;;3.22;;
51174;SDS011;37240;50.104;20.010;2023-12-20T05:38:50;2.70;;;2.25;;
51174;SDS011;37240;50.104;20.010;2023-12-20T05:43:51;3.25;;;2.85;;
51174;SDS011;37240;50.104;20.010;2023-12-20T05:48:51;4.90;;;2.88;;
51174;SDS011;37240;50.104;20.010;2023-12-20T05:53:52;4.15;;;2.83;;
51174;SDS011;37240;50.104;20.010;2023-12-20T05:58:52;6.70;;;3.40;;
51174;SDS011;37240;50.104;20.010;2023-12-20T06:03:53;3.58;;;2.67;;
51174;SDS011;37240;50.104;20.010;2023-12-20T06:08:53;6.18;;;3.38;;
51174;SDS011;37240;50.104;20.010;2023-12-20T06:13:54;5.90;;;3.47;;
51174;SDS011;37240;50.104;20.010;2023-12-20T06:18:54;5.20;;;3.60;;
51174;SDS011;37240;50.104;20.010;2023-12-20T06:23:55;5.90;;;3.80;;
51174;SDS011;37240;50.104;20.010;2023-12-20T06:28:55;7.80;;;4.28;;
51174;SDS011;37240;50.104;20.010;2023-12-20T06:33:56;10.35;;;4.70;;
51174;SDS011;37240;50.104;20.010;2023-12-20T06:38:56;7.85;;;4.90;;
51174;SDS011;37240;50.104;20.010;2023-12-20T06:43:57;9.35;;;5.70;;
51174;SDS011;37240;50.104;20.010;2023-12-20T06:48:58;9.98;;;6.10;;
51174;SDS011;37240;50.104;20.010;2023-12-20T06:53:58;8.68;;;4.97;;
51174;SDS011;37240;50.104;20.010;2023-12-20T06:58:59;7.03;;;4.63;;
51174;SDS011;37240;50.104;20.010;2023-12-20T07:03:59;14.70;;;5.93;;
51174;SDS011;37240;50.104;20.010;2023-12-20T07:09:00;7.28;;;5.28;;
51174;SDS011;37240;50.104;20.010;2023-12-20T07:14:00;13.48;;;6.22;;
51174;SDS011;37240;50.104;20.010;2023-12-20T07:19:01;7.35;;;5.38;;
51174;SDS011;37240;50.104;20.010;2023-12-20T07:24:01;10.43;;;5.82;;
51174;SDS011;37240;50.104;20.010;2023-12-20T07:29:02;12.90;;;6.35;;
51174;SDS011;37240;50.104;20.010;2023-12-20T07:34:02;11.45;;;6.10;;
51174;SDS011;37240;50.104;20.010;2023-12-20T07:39:03;8.00;;;4.63;;
51174;SDS011;37240;50.104;20.010;2023-12-20T07:44:04;12.60;;;6.82;;
51174;SDS011;37240;50.104;20.010;2023-12-20T07:49:05;9.35;;;5.30;;
51174;SDS011;37240;50.104;20.010;2023-12-20T07:54:05;12.45;;;5.85;;
51174;SDS011;37240;50.104;20.010;2023-12-20T07:59:06;7.32;;;5.00;;
51174;SDS011;37240;50.104;20.010;2023-12-20T08:04:06;8.93;;;4.93;;
51174;SDS011;37240;50.104;20.010;2023-12-20T08:09:07;8.90;;;5.32;;
51174;SDS011;37240;50.104;20.010;2023-12-20T08:14:07;5.80;;;4.25;;
51174;SDS011;37240;50.104;20.010;2023-12-20T08:19:08;6.25;;;4.75;;
51174;SDS011;37240;50.104;20.010;2023-12-20T08:24:08;16.05;;;5.40;;
51174;SDS011;37240;50.104;20.010;2023-12-20T08:29:09;9.93;;;5.72;;
51174;SDS011;37240;50.104;20.010;2023-12-20T08:34:09;9.20;;;5.47;;
51174;SDS011;37240;50.104;20.010;2023-12-20T08:39:10;11.05;;;5.93;;
51174;SDS011;37240;50.104;20.010;2023-12-20T08:44:11;8.13;;;5.40;;
51174;SDS011;37240;50.104;20.010;2023-12-20T08:49:11;11.38;;;6.57;;
51174;SDS011;37240;50.104;20.010;2023-12-20T08:54:12;9.93;;;6.15;;
51174;SDS011;37240;50.104;20.010;2023-12-20T08:59:12;7.57;;;5.47;;
51174;SDS011;37240;50.104;20.010;2023-12-20T09:04:13;14.88;;;6.22;;
51174;SDS011;37240;50.104;20.010;2023-12-20T09:09:13;15.50;;;6.65;;
51174;SDS011;37240;50.104;20.010;2023-12-20T09:14:14;10.00;;;6.38;;
51174;SDS011;37240;50.104;20.010;2023-12-20T09:19:14;10.05;;;6.10;;
51174;SDS011;37240;50.104;20.010;2023-12-20T09:24:15;14.63;;;7.35;;
51174;SDS011;37240;50.104;20.010;2023-12-20T09:29:15;10.07;;;6.40;;
51174;SDS011;37240;50.104;20.010;2023-12-20T09:34:16;12.90;;;6.57;;
51174;SDS011;37240;50.104;20.010;2023-12-20T09:39:17;10.57;;;6.03;;
51174;SDS011;37240;50.104;20.010;2023-12-20T09:44:19;12.02;;;6.57;;
51174;SDS011;37240;50.104;20.010;2023-12-20T09:49:19;10.40;;;6.50;;
51174;SDS011;37240;50.104;20.010;2023-12-20T09:54:21;12.63;;;7.25;;
51174;SDS011;37240;50.104;20.010;2023-12-20T09:59:22;11.82;;;7.30;;
51174;SDS011;37240;50.104;20.010;2023-12-20T10:04:22;11.77;;;7.72;;
51174;SDS011;37240;50.104;20.010;2023-12-20T10:09:23;13.05;;;7.30;;
51174;SDS011;37240;50.104;20.010;2023-12-20T10:14:24;9.55;;;6.18;;
51174;SDS011;37240;50.104;20.010;2023-12-20T10:19:25;8.77;;;6.03;;
51174;SDS011;37240;50.104;20.010;2023-12-20T10:24:28;9.95;;;5.47;;
51174;SDS011;37240;50.104;20.010;2023-12-20T10:29:31;12.55;;;5.80;;
51174;SDS011;37240;50.104;20.010;2023-12-20T10:34:40;7.93;;;5.35;;
51174;SDS011;37240;50.104;20.010;2023-12-20T10:39:41;9.23;;;5.90;;
51174;SDS011;37240;50.104;20.010;2023-12-20T10:44:43;10.07;;;5.20;;
51174;SDS011;37240;50.104;20.010;2023-12-20T10:49:43;8.45;;;5.10;;
51174;SDS011;37240;50.104;20.010;2023-12-20T10:54:45;10.63;;;5.38;;
51174;SDS011;37240;50.104;20.010;2023-12-20T10:59:46;7.00;;;5.00;;
51174;SDS011;37240;50.104;20.010;2023-12-20T11:15:45;7.25;;;5.18;;
51174;SDS011;37240;50.104;20.010;2023-12-20T11:20:46;7.70;;;4.97;;
51174;SDS011;37240;50.104;20.010;2023-12-20T11:25:51;11.45;;;5.00;;
51174;SDS011;37240;50.104;20.010;2023-12-20T11:31:00;15.10;;;8.02;;
51174;SDS011;37240;50.104;20.010;2023-12-20T11:36:02;14.98;;;6.30;;
51174;SDS011;37240;50.104;20.010;2023-12-20T11:41:04;11.80;;;4.80;;
51174;SDS011;37240;50.104;20.010;2023-12-20T11:46:06;10.80;;;6.03;;
51174;SDS011;37240;50.104;20.010;2023-12-20T11:51:12;11.40;;;5.25;;
51174;SDS011;37240;50.104;20.010;2023-12-20T11:56:12;8.30;;;5.15;;
51174;SDS011;37240;50.104;20.010;2023-12-20T12:01:13;8.20;;;4.95;;
51174;SDS011;37240;50.104;20.010;2023-12-20T12:06:13;9.30;;;3.78;;
51174;SDS011;37240;50.104;20.010;2023-12-20T12:11:14;7.60;;;4.43;;
51174;SDS011;37240;50.104;20.010;2023-12-20T12:16:18;6.32;;;4.57;;
51174;SDS011;37240;50.104;20.010;2023-12-20T12:21:20;6.55;;;4.32;;
51174;SDS011;37240;50.104;20.010;2023-12-20T12:26:20;5.72;;;4.30;;
51174;SDS011;37240;50.104;20.010;2023-12-20T12:31:24;6.20;;;4.38;;
51174;SDS011;37240;50.104;20.010;2023-12-20T12:36:25;6.25;;;4.28;;
51174;SDS011;37240;50.104;20.010;2023-12-20T12:41:25;14.65;;;4.90;;
51174;SDS011;37240;50.104;20.010;2023-12-20T12:46:26;19.63;;;10.32;;
51174;SDS011;37240;50.104;20.010;2023-12-20T12:51:26;15.98;;;7.47;;
51174;SDS011;37240;50.104;20.010;2023-12-20T12:56:27;7.40;;;5.45;;
51174;SDS011;37240;50.104;20.010;2023-12-20T13:01:28;7.88;;;4.38;;
51174;SDS011;37240;50.104;20.010;2023-12-20T13:06:28;11.05;;;5.55;;
51174;SDS011;37240;50.104;20.010;2023-12-20T13:11:29;7.72;;;4.85;;
51174;SDS011;37240;50.104;20.010;2023-12-20T13:16:30;10.50;;;5.25;;
51174;SDS011;37240;50.104;20.010;2023-12-20T13:21:31;7.53;;;4.68;;
51174;SDS011;37240;50.104;20.010;2023-12-20T13:26:31;11.20;;;5.97;;
51174;SDS011;37240;50.104;20.010;2023-12-20T13:31:32;7.60;;;5.32;;
51174;SDS011;37240;50.104;20.010;2023-12-20T13:36:32;14.35;;;7.75;;
51174;SDS011;37240;50.104;20.010;2023-12-20T13:41:33;48.42;;;19.63;;
51174;SDS011;37240;50.104;20.010;2023-12-20T13:46:34;17.23;;;8.73;;
51174;SDS011;37240;50.104;20.010;2023-12-20T13:51:34;19.88;;;8.23;;
51174;SDS011;37240;50.104;20.010;2023-12-20T13:56:35;12.32;;;6.68;;
51174;SDS011;37240;50.104;20.010;2023-12-20T14:01:35;47.40;;;20.05;;
51174;SDS011;37240;50.104;20.010;2023-12-20T14:06:36;23.38;;;11.70;;
51174;SDS011;37240;50.104;20.010;2023-12-20T14:11:36;15.13;;;7.32;;
51174;SDS011;37240;50.104;20.010;2023-12-20T14:16:37;14.73;;;6.25;;
51174;SDS011;37240;50.104;20.010;2023-12-20T14:21:37;11.68;;;5.65;;
51174;SDS011;37240;50.104;20.010;2023-12-20T14:26:38;8.52;;;5.30;;
51174;SDS011;37240;50.104;20.010;2023-12-20T14:31:38;7.70;;;5.35;;
51174;SDS011;37240;50.104;20.010;2023-12-20T14:36:39;10.38;;;5.28;;
51174;SDS011;37240;50.104;20.010;2023-12-20T14:41:39;8.70;;;5.25;;
51174;SDS011;37240;50.104;20.010;2023-12-20T14:46:40;11.88;;;5.55;;
51174;SDS011;37240;50.104;20.010;2023-12-20T14:51:43;11.43;;;5.45;;
51174;SDS011;37240;50.104;20.010;2023-12-20T14:56:44;9.15;;;5.28;;
51174;SDS011;37240;50.104;20.010;2023-12-20T15:01:44;11.00;;;5.32;;
51174;SDS011;37240;50.104;20.010;2023-12-20T15:06:45;10.68;;;5.72;;
51174;SDS011;37240;50.104;20.010;2023-12-20T15:11:45;9.13;;;5.85;;
51174;SDS011;37240;50.104;20.010;2023-12-20T15:16:46;11.18;;;5.78;;
51174;SDS011;37240;50.104;20.010;2023-12-20T15:21:47;14.43;;;6.70;;
51174;SDS011;37240;50.104;20.010;2023-12-20T15:26:47;14.10;;;7.03;;
51174;SDS011;37240;50.104;20.010;2023-12-20T15:31:48;15.75;;;7.15;;
51174;SDS011;37240;50.104;20.010;2023-12-20T15:36:48;14.98;;;7.88;;
51174;SDS011;37240;50.104;20.010;2023-12-20T15:41:49;11.85;;;6.00;;
51174;SDS011;37240;50.104;20.010;2023-12-20T15:46:50;13.70;;;7.05;;
51174;SDS011;37240;50.104;20.010;2023-12-20T15:51:51;18.42;;;7.25;;
51174;SDS011;37240;50.104;20.010;2023-12-20T15:56:52;14.77;;;7.18;;
51174;SDS011;37240;50.104;20.010;2023-12-20T16:01:52;13.23;;;6.68;;
51174;SDS011;37240;50.104;20.010;2023-12-20T16:06:53;12.90;;;7.35;;
51174;SDS011;37240;50.104;20.010;2023-12-20T16:11:53;12.63;;;7.15;;
51174;SDS011;37240;50.104;20.010;2023-12-20T16:16:54;12.27;;;6.47;;
51174;SDS011;37240;50.104;20.010;2023-12-20T16:21:55;14.25;;;7.40;;
51174;SDS011;37240;50.104;20.010;2023-12-20T16:26:55;13.23;;;7.57;;
51174;SDS011;37240;50.104;20.010;2023-12-20T16:31:56;15.20;;;8.45;;
51174;SDS011;37240;50.104;20.010;2023-12-20T16:36:56;19.02;;;7.82;;
51174;SDS011;37240;50.104;20.010;2023-12-20T16:41:57;15.68;;;7.97;;
51174;SDS011;37240;50.104;20.010;2023-12-20T16:46:57;16.90;;;7.78;;
51174;SDS011;37240;50.104;20.010;2023-12-20T16:51:58;16.33;;;7.85;;
51174;SDS011;37240;50.104;20.010;2023-12-20T16:56:58;22.60;;;10.23;;
51174;SDS011;37240;50.104;20.010;2023-12-20T17:01:59;26.83;;;10.27;;
51174;SDS011;37240;50.104;20.010;2023-12-20T17:06:59;21.33;;;8.93;;
51174;SDS011;37240;50.104;20.010;2023-12-20T17:12:00;14.27;;;7.55;;
51174;SDS011;37240;50.104;20.010;2023-12-20T17:17:00;20.48;;;8.90;;
51174;SDS011;37240;50.104;20.010;2023-12-20T17:22:01;16.65;;;8.18;;
51174;SDS011;37240;50.104;20.010;2023-12-20T17:27:02;15.05;;;8.00;;
51174;SDS011;37240;50.104;20.010;2023-12-20T17:32:02;19.38;;;7.57;;
51174;SDS011;37240;50.104;20.010;2023-12-20T17:37:04;16.83;;;7.43;;
51174;SDS011;37240;50.104;20.010;2023-12-20T17:42:07;15.57;;;7.68;;
51174;SDS011;37240;50.104;20.010;2023-12-20T17:47:07;22.23;;;7.85;;
51174;SDS011;37240;50.104;20.010;2023-12-20T17:52:08;19.10;;;8.15;;
51174;SDS011;37240;50.104;20.010;2023-12-20T17:57:08;15.05;;;7.72;;
51174;SDS011;37240;50.104;20.010;2023-12-20T18:02:09;18.17;;;7.55;;
51174;SDS011;37240;50.104;20.010;2023-12-20T18:07:10;14.80;;;7.28;;
51174;SDS011;37240;50.104;20.010;2023-12-20T18:12:11;17.17;;;7.70;;
51174;SDS011;37240;50.104;20.010;2023-12-20T18:17:12;17.00;;;7.28;;
51174;SDS011;37240;50.104;20.010;2023-12-20T18:22:12;15.65;;;7.07;;
51174;SDS011;37240;50.104;20.010;2023-12-20T18:27:13;15.60;;;6.93;;
51174;SDS011;37240;50.104;20.010;2023-12-20T18:32:14;17.83;;;6.90;;
51174;SDS011;37240;50.104;20.010;2023-12-20T18:37:15;13.18;;;5.95;;
51174;SDS011;37240;50.104;20.010;2023-12-20T18:42:15;20.35;;;6.45;;
51174;SDS011;37240;50.104;20.010;2023-12-20T18:47:16;12.52;;;6.85;;
51174;SDS011;37240;50.104;20.010;2023-12-20T18:52:16;17.23;;;6.65;;
51174;SDS011;37240;50.104;20.010;2023-12-20T18:57:17;18.80;;;6.82;;
51174;SDS011;37240;50.104;20.010;2023-12-20T19:02:17;13.70;;;6.32;;
51174;SDS011;37240;50.104;20.010;2023-12-20T19:07:18;9.07;;;5.07;;
51174;SDS011;37240;50.104;20.010;2023-12-20T19:12:19;9.30;;;4.97;;
51174;SDS011;37240;50.104;20.010;2023-12-20T19:17:19;8.82;;;4.32;;
51174;SDS011;37240;50.104;20.010;2023-12-20T19:22:20;10.35;;;4.95;;
51174;SDS011;37240;50.104;20.010;2023-12-20T19:27:20;9.10;;;4.38;;
51174;SDS011;37240;50.104;20.010;2023-12-20T19:32:21;11.02;;;4.53;;
51174;SDS011;37240;50.104;20.010;2023-12-20T19:37:21;14.13;;;5.07;;
51174;SDS011;37240;50.104;20.010;2023-12-20T19:42:22;9.70;;;3.72;;
51174;SDS011;37240;50.104;20.010;2023-12-20T19:47:23;11.23;;;5.00;;
51174;SDS011;37240;50.104;20.010;2023-12-20T19:52:23;9.95;;;4.32;;
51174;SDS011;37240;50.104;20.010;2023-12-20T19:57:24;9.93;;;3.35;;
51174;SDS011;37240;50.104;20.010;2023-12-20T20:02:24;7.90;;;3.78;;
51174;SDS011;37240;50.104;20.010;2023-12-20T20:07:25;9.00;;;3.63;;
51174;SDS011;37240;50.104;20.010;2023-12-20T20:12:25;6.50;;;3.65;;
51174;SDS011;37240;50.104;20.010;2023-12-20T20:17:26;6.40;;;3.63;;
51174;SDS011;37240;50.104;20.010;2023-12-20T20:22:27;12.10;;;4.78;;
51174;SDS011;37240;50.104;20.010;2023-12-20T20:27:27;12.18;;;4.03;;
51174;SDS011;37240;50.104;20.010;2023-12-20T20:32:28;7.78;;;3.65;;
51174;SDS011;37240;50.104;20.010;2023-12-20T20:37:28;11.00;;;3.55;;
51174;SDS011;37240;50.104;20.010;2023-12-20T20:42:29;11.63;;;3.85;;
51174;SDS011;37240;50.104;20.010;2023-12-20T20:47:29;8.25;;;3.80;;
51174;SDS011;37240;50.104;20.010;2023-12-20T20:52:30;11.27;;;3.65;;
51174;SDS011;37240;50.104;20.010;2023-12-20T20:57:32;8.15;;;3.45;;
51174;SDS011;37240;50.104;20.010;2023-12-20T21:02:32;7.75;;;3.28;;
51174;SDS011;37240;50.104;20.010;2023-12-20T21:07:33;7.32;;;3.42;;
51174;SDS011;37240;50.104;20.010;2023-12-20T21:12:33;7.18;;;3.38;;
51174;SDS011;37240;50.104;20.010;2023-12-20T21:17:34;11.25;;;4.15;;
51174;SDS011;37240;50.104;20.010;2023-12-20T21:22:34;8.40;;;4.18;;
51174;SDS011;37240;50.104;20.010;2023-12-20T21:27:35;8.15;;;4.10;;
51174;SDS011;37240;50.104;20.010;2023-12-20T21:32:37;6.47;;;3.15;;
51174;SDS011;37240;50.104;20.010;2023-12-20T21:37:37;8.60;;;3.85;;
51174;SDS011;37240;50.104;20.010;2023-12-20T21:42:38;9.38;;;4.20;;
51174;SDS011;37240;50.104;20.010;2023-12-20T21:47:38;9.02;;;3.38;;
51174;SDS011;37240;50.104;20.010;2023-12-20T21:52:39;14.98;;;3.78;;
51174;SDS011;37240;50.104;20.010;2023-12-20T21:57:40;10.15;;;4.10;;
51174;SDS011;37240;50.104;20.010;2023-12-20T22:02:40;8.75;;;4.03;;
51174;SDS011;37240;50.104;20.010;2023-12-20T22:07:41;5.10;;;3.20;;
51174;SDS011;37240;50.104;20.010;2023-12-20T22:12:41;7.88;;;3.17;;
51174;SDS011;37240;50.104;20.010;2023-12-20T22:17:42;6.43;;;3.63;;
51174;SDS011;37240;50.104;20.010;2023-12-20T22:22:42;8.65;;;3.60;;
51174;SDS011;37240;50.104;20.010;2023-12-20T22:27:43;7.80;;;3.00;;
51174;SDS011;37240;50.104;20.010;2023-12-20T22:32:43;4.40;;;3.33;;
51174;SDS011;37240;50.104;20.010;2023-12-20T22:37:44;6.60;;;3.58;;
51174;SDS011;37240;50.104;20.010;2023-12-20T22:42:44;5.80;;;2.67;;
51174;SDS011;37240;50.104;20.010;2023-12-20T22:47:45;8.57;;;3.25;;
51174;SDS011;37240;50.104;20.010;2023-12-20T22:52:45;9.38;;;4.15;;
51174;SDS011;37240;50.104;20.010;2023-12-20T22:57:46;7.53;;;3.63;;
51174;SDS011;37240;50.104;20.010;2023-12-20T23:02:47;6.53;;;3.35;;
51174;SDS011;37240;50.104;20.010;2023-12-20T23:07:47;5.75;;;3.47;;
51174;SDS011;37240;50.104;20.010;2023-12-20T23:12:48;3.88;;;2.78;;
51174;SDS011;37240;50.104;20.010;2023-12-20T23:17:48;7.43;;;3.28;;
51174;SDS011;37240;50.104;20.010;2023-12-20T23:22:49;5.20;;;2.63;;
51174;SDS011;37240;50.104;20.010;2023-12-20T23:27:49;8.32;;;3.10;;
51174;SDS011;37240;50.104;20.010;2023-12-20T23:32:50;5.53;;;2.92;;
51174;SDS011;37240;50.104;20.010;2023-12-20T23:37:50;4.68;;;2.90;;
51174;SDS011;37240;50.104;20.010;2023-12-20T23:42:51;7.38;;;2.42;;
51174;SDS011;37240;50.104;20.010;2023-12-20T23:47:51;5.40;;;2.60;;
51174;SDS011;37240;50.104;20.010;2023-12-20T23:52:52;6.13;;;3.17;;
51174;SDS011;37240;50.104;20.010;2023-12-20T23:57:53;13.38;;;2.85;;
